createdAt,value
2023-04-14T00:00:46.300Z,100883.91
2023-04-14T00:03:13.421Z,100891.81
2023-04-14T00:05:40.619Z,100891.81
2023-04-14T00:08:07.565Z,100884.25
2023-04-14T00:10:34.496Z,100888.72
2023-04-14T00:13:02.096Z,100883.16
2023-04-14T00:15:29.133Z,100890.97
2023-04-14T00:17:57.414Z,100889.06
2023-04-14T00:20:24.617Z,100891.06
2023-04-14T00:22:51.740Z,100890.69
2023-04-14T00:25:19.524Z,100890.34
2023-04-14T00:27:46.408Z,100896.25
2023-04-14T00:30:13.940Z,100895.91
2023-04-14T00:32:40.903Z,100897.72
2023-04-14T00:35:09.602Z,100902.53
2023-04-14T00:37:36.526Z,100900.25
2023-04-14T00:40:03.843Z,100904.91
2023-04-14T00:42:31.861Z,100906.91
2023-04-14T00:44:58.832Z,100905.25
2023-04-14T00:47:26.994Z,100913.16
2023-04-14T00:49:53.929Z,100904.41
2023-04-14T00:52:25.465Z,100915.78
2023-04-14T00:54:52.483Z,100922.06
2023-04-14T00:57:19.515Z,100915.16
2023-04-14T00:59:46.433Z,100919.59
2023-04-14T01:02:13.602Z,100916.97
2023-04-14T01:04:53.025Z,100916.16
2023-04-14T01:07:25.564Z,100917.16
2023-04-14T01:09:55.768Z,100922.44
2023-04-14T01:12:38.861Z,100920.16
2023-04-14T01:15:17.078Z,100917.50
2023-04-14T01:17:53.028Z,100917.31
2023-04-14T01:20:29.185Z,100918.16
2023-04-14T01:23:06.263Z,100928.69
2023-04-14T01:26:20.661Z,100931.03
2023-04-14T01:29:44.054Z,100928.94
2023-04-14T01:32:21.360Z,100925.31
2023-04-14T01:34:55.628Z,100931.41
2023-04-14T01:37:30.572Z,100924.50
2023-04-14T01:40:03.132Z,100930.59
2023-04-14T01:42:36.457Z,100928.13
2023-04-14T01:45:11.712Z,100926.50
2023-04-14T01:47:42.442Z,100930.50
2023-04-14T01:50:13.367Z,100930.84
2023-04-14T01:52:44.311Z,100926.75
2023-04-14T01:55:15.415Z,100930.50
2023-04-14T01:57:46.143Z,100933.16
2023-04-14T02:00:16.337Z,100929.50
2023-04-14T02:02:48.837Z,100931.19
2023-04-14T02:05:18.310Z,100928.34
2023-04-14T02:07:47.799Z,100931.19
2023-04-14T02:10:17.526Z,100930.00
2023-04-14T02:12:45.689Z,100925.91
2023-04-14T02:15:17.284Z,100930.34
2023-04-14T02:17:49.319Z,100934.31
2023-04-14T02:20:17.102Z,100930.22
2023-04-14T02:22:44.069Z,100938.66
2023-04-14T02:25:11.229Z,100933.72
2023-04-14T02:27:48.422Z,100948.06
2023-04-14T02:30:22.417Z,100939.72
2023-04-14T02:33:01.780Z,100946.16
2023-04-14T02:35:37.884Z,100945.81
2023-04-14T02:38:13.688Z,100953.53
2023-04-14T02:40:43.752Z,100951.34
2023-04-14T02:43:18.025Z,100949.53
2023-04-14T02:45:49.026Z,100951.66
2023-04-14T02:48:21.344Z,100947.69
2023-04-14T02:50:53.180Z,100952.59
2023-04-14T02:53:24.264Z,100963.13
2023-04-14T02:55:54.575Z,100963.13
2023-04-14T02:58:22.091Z,100961.41
2023-04-14T03:00:52.109Z,100964.91
2023-04-14T03:03:21.179Z,100964.94
2023-04-14T03:05:48.860Z,100963.34
2023-04-14T03:08:16.876Z,100966.84
2023-04-14T03:10:48.048Z,100968.72
2023-04-14T03:13:17.704Z,100966.75
2023-04-14T03:15:46.544Z,100963.19
2023-04-14T03:18:15.760Z,100969.16
2023-04-14T03:20:45.891Z,100972.44
2023-04-14T03:23:18.869Z,100973.78
2023-04-14T03:25:47.948Z,100974.13
2023-04-14T03:28:22.763Z,100975.47
2023-04-14T03:30:54.998Z,100973.66
2023-04-14T03:33:28.898Z,100978.72
2023-04-14T03:36:00.293Z,100972.50
2023-04-14T03:38:28.305Z,100985.47
2023-04-14T03:40:59.869Z,100982.66
2023-04-14T03:43:29.371Z,100976.22
2023-04-14T03:45:58.075Z,100978.72
2023-04-14T03:48:29.691Z,100979.06
2023-04-14T03:50:59.934Z,100981.03
2023-04-14T03:53:31.036Z,100988.28
2023-04-14T03:55:59.988Z,100981.56
2023-04-14T03:58:31.030Z,100991.44
2023-04-14T04:00:59.395Z,100987.31
2023-04-14T04:03:28.807Z,101001.78
2023-04-14T04:05:57.778Z,100998.84
2023-04-14T04:08:25.690Z,100995.94
2023-04-14T04:11:07.768Z,100995.59
2023-04-14T04:13:41.947Z,100999.41
2023-04-14T04:16:13.207Z,101004.16
2023-04-14T04:18:46.763Z,100996.13
2023-04-14T04:21:19.224Z,100994.97
2023-04-14T04:23:52.400Z,100997.41
2023-04-14T04:26:19.722Z,100995.25
2023-04-14T04:28:47.278Z,100998.88
2023-04-14T04:31:15.942Z,101005.94
2023-04-14T04:33:45.134Z,101000.22
2023-04-14T04:36:13.569Z,101004.16
2023-04-14T04:38:42.846Z,101011.72
2023-04-14T04:41:21.669Z,101008.94
2023-04-14T04:43:48.548Z,101011.91
2023-04-14T04:46:39.164Z,101017.66
2023-04-14T04:49:06.122Z,101018.66
2023-04-14T04:51:33.154Z,101021.94
2023-04-14T04:54:01.372Z,101024.09
2023-04-14T04:56:28.264Z,101021.59
2023-04-14T04:58:55.137Z,101017.50
2023-04-14T05:01:22.066Z,101017.31
2023-04-14T05:03:49.008Z,101027.19
2023-04-14T05:06:16.556Z,101022.59
2023-04-14T05:08:43.517Z,101021.63
2023-04-14T05:11:11.928Z,101023.94
2023-04-14T05:13:38.940Z,101024.25
2023-04-14T05:16:09.150Z,101020.66
2023-04-14T05:18:36.792Z,101027.22
2023-04-14T05:21:04.963Z,101021.63
2023-04-14T05:23:34.430Z,101026.38
2023-04-14T05:26:16.224Z,101031.47
2023-04-14T05:28:49.864Z,101034.09
2023-04-14T05:31:16.902Z,101037.38
2023-04-14T05:33:43.953Z,101036.09
2023-04-14T05:36:11.264Z,101033.75
2023-04-14T05:38:42.023Z,101041.50
2023-04-14T05:41:09.084Z,101039.38
2023-04-14T05:43:36.771Z,101038.88
2023-04-14T05:46:05.575Z,101036.75
2023-04-14T05:48:33.368Z,101038.72
2023-04-14T05:51:00.660Z,101035.09
2023-04-14T05:53:27.774Z,101032.78
2023-04-14T05:55:56.906Z,101037.06
2023-04-14T05:58:26.374Z,101036.06
2023-04-14T06:00:53.398Z,101031.75
2023-04-14T06:03:21.874Z,101036.84
2023-04-14T06:05:50.484Z,101037.44
2023-04-14T06:08:18.697Z,101039.75
2023-04-14T06:10:45.701Z,101044.47
2023-04-14T06:13:12.613Z,101046.72
2023-04-14T06:15:39.482Z,101043.06
2023-04-14T06:18:06.454Z,101038.22
2023-04-14T06:20:36.058Z,101030.72
2023-04-14T06:23:03.059Z,101037.47
2023-04-14T06:25:30.835Z,101033.59
2023-04-14T06:27:57.774Z,101034.19
2023-04-14T06:30:25.600Z,101028.69
2023-04-14T06:32:54.446Z,101034.38
2023-04-14T06:35:32.436Z,101019.31
2023-04-14T06:38:02.267Z,101033.72
2023-04-14T06:40:29.574Z,101033.81
2023-04-14T06:42:56.605Z,101030.28
2023-04-14T06:45:23.511Z,101029.91
2023-04-14T06:47:50.786Z,101033.31
2023-04-14T06:50:17.970Z,101033.22
2023-04-14T06:52:44.900Z,101036.06
2023-04-14T06:55:13.112Z,101039.88
2023-04-14T06:57:40.369Z,101038.78
2023-04-14T07:00:10.554Z,101032.75
2023-04-14T07:02:56.064Z,101029.25
2023-04-14T07:05:29.226Z,101038.63
2023-04-14T07:07:56.136Z,101028.06
2023-04-14T07:10:24.451Z,101027.06
2023-04-14T07:12:51.428Z,101026.03
2023-04-14T07:15:18.805Z,101026.94
2023-04-14T07:17:45.809Z,101025.19
2023-04-14T07:20:13.323Z,101035.38
2023-04-14T07:22:40.614Z,101027.81
2023-04-14T07:25:08.381Z,101028.25
2023-04-14T07:27:36.761Z,101021.91
2023-04-14T07:30:04.986Z,101024.00
2023-04-14T07:32:32.965Z,101028.75
2023-04-14T07:35:00.519Z,101016.13
2023-04-14T07:37:27.472Z,101018.09
2023-04-14T07:39:54.423Z,101019.91
2023-04-14T07:42:21.632Z,101022.03
2023-04-14T07:44:49.936Z,101036.25
2023-04-14T07:47:19.087Z,101034.69
2023-04-14T07:49:46.202Z,101031.00
2023-04-14T07:52:13.122Z,101021.03
2023-04-14T07:54:40.150Z,101017.03
2023-04-14T07:57:09.867Z,101028.66
2023-04-14T07:59:38.196Z,101019.47
2023-04-14T08:02:07.455Z,101021.09
2023-04-14T08:04:34.720Z,101023.69
2023-04-14T08:07:01.758Z,101020.06
2023-04-14T08:09:28.857Z,101024.44
2023-04-14T08:11:57.225Z,101021.63
2023-04-14T08:14:24.203Z,101026.59
2023-04-14T08:16:51.504Z,101021.69
2023-04-14T08:19:19.838Z,101025.78
2023-04-14T08:21:47.205Z,101020.66
2023-04-14T08:24:14.111Z,101019.19
2023-04-14T08:26:41.162Z,101021.22
2023-04-14T08:29:08.081Z,101017.84
2023-04-14T08:31:35.511Z,101016.75
2023-04-14T08:34:03.040Z,101016.09
2023-04-14T08:36:31.443Z,101020.41
2023-04-14T08:39:00.226Z,101026.09
2023-04-14T08:41:32.133Z,101024.63
2023-04-14T08:43:59.071Z,101027.31
2023-04-14T08:46:28.454Z,101025.47
2023-04-14T08:49:04.616Z,101031.88
2023-04-14T08:51:36.579Z,101024.00
2023-04-14T08:54:10.044Z,101022.75
2023-04-14T08:56:39.372Z,101022.56
2023-04-14T08:59:07.940Z,101020.41
2023-04-14T09:01:36.928Z,101018.31
2023-04-14T09:04:05.479Z,101018.78
2023-04-14T09:06:35.471Z,101009.44
2023-04-14T09:09:05.156Z,101019.84
2023-04-14T09:11:32.288Z,101011.38
2023-04-14T09:14:00.511Z,101010.97
2023-04-14T09:16:28.835Z,101008.59
2023-04-14T09:18:58.038Z,101004.78
2023-04-14T09:21:52.950Z,101008.00
2023-04-14T09:24:30.284Z,101008.34
2023-04-14T09:27:01.892Z,101011.56
2023-04-14T09:29:29.376Z,101006.56
2023-04-14T09:31:56.925Z,101005.06
2023-04-14T09:34:23.984Z,101009.84
2023-04-14T09:37:05.136Z,100998.69
2023-04-14T09:39:32.708Z,101003.19
2023-04-14T09:41:59.827Z,101004.53
2023-04-14T09:44:26.962Z,100998.09
2023-04-14T09:46:59.336Z,100998.50
2023-04-14T09:49:26.743Z,101000.41
2023-04-14T09:51:57.463Z,100999.88
2023-04-14T09:54:26.985Z,100994.75
2023-04-14T09:56:54.719Z,100997.81
2023-04-14T09:59:33.816Z,100992.03
2023-04-14T10:02:04.738Z,100991.03
2023-04-14T10:04:32.124Z,100994.00
2023-04-14T10:06:59.977Z,100991.75
2023-04-14T10:09:30.993Z,100995.41
2023-04-14T10:12:12.794Z,100991.16
2023-04-14T10:14:41.355Z,100990.78
2023-04-14T10:17:09.261Z,100985.44
2023-04-14T10:19:37.914Z,100984.75
2023-04-14T10:22:06.327Z,100985.38
2023-04-14T10:24:34.914Z,100984.09
2023-04-14T10:27:03.610Z,100974.63
2023-04-14T10:29:31.180Z,100981.69
2023-04-14T10:32:05.921Z,100969.09
2023-04-14T10:34:35.297Z,100961.75
2023-04-14T10:37:13.697Z,100954.50
2023-04-14T10:39:42.912Z,100964.59
2023-04-14T10:42:10.662Z,100962.09
2023-04-14T10:44:38.206Z,100961.13
2023-04-14T10:47:08.412Z,100952.25
2023-04-14T10:49:39.113Z,100954.84
2023-04-14T10:52:33.144Z,100949.75
2023-04-14T10:55:09.606Z,100938.94
2023-04-14T10:57:40.903Z,100942.19
2023-04-14T11:00:24.226Z,100935.81
2023-04-14T11:02:57.765Z,100933.88
2023-04-14T11:05:25.627Z,100937.38
2023-04-14T11:08:00.701Z,100931.28
2023-04-14T11:10:32.531Z,100925.66
2023-04-14T11:13:05.286Z,100928.53
2023-04-14T11:15:50.781Z,100927.44
2023-04-14T11:18:32.202Z,100928.53
2023-04-14T11:21:06.502Z,100934.41
2023-04-14T11:23:35.170Z,100935.16
2023-04-14T11:26:06.470Z,100929.03
2023-04-14T11:28:35.428Z,100919.84
2023-04-14T11:31:05.214Z,100925.59
2023-04-14T11:33:35.835Z,100917.97
2023-04-14T11:36:05.738Z,100922.50
2023-04-14T11:38:35.907Z,100919.38
2023-04-14T11:41:04.369Z,100911.78
2023-04-14T11:43:31.848Z,100916.97
2023-04-14T11:46:03.181Z,100906.31
2023-04-14T11:48:33.678Z,100911.78
2023-04-14T11:51:03.647Z,100909.94
2023-04-14T11:53:32.021Z,100914.38
2023-04-14T11:56:00.681Z,100915.66
2023-04-14T11:58:29.219Z,100911.50
2023-04-14T12:00:59.748Z,100913.69
2023-04-14T12:03:28.265Z,100912.59
2023-04-14T12:05:58.327Z,100912.84
2023-04-14T12:08:25.851Z,100908.88
2023-04-14T12:10:54.052Z,100912.56
2023-04-14T12:13:21.297Z,100903.75
2023-04-14T12:15:50.311Z,100908.75
2023-04-14T12:20:52.843Z,100903.38
2023-04-14T12:23:20.158Z,100905.34
2023-04-14T12:25:50.509Z,100902.63
2023-04-14T12:28:18.522Z,100907.22
2023-04-14T12:30:54.087Z,100892.69
2023-04-14T12:33:23.968Z,100893.38
2023-04-14T12:35:51.467Z,100893.25
2023-04-14T12:38:18.416Z,100899.38
2023-04-14T12:40:47.879Z,100890.94
2023-04-14T12:43:18.540Z,100893.75
2023-04-14T12:45:48.690Z,100885.50
2023-04-14T12:48:18.144Z,100889.56
2023-04-14T12:50:45.690Z,100887.59
2023-04-14T12:53:32.158Z,100886.34
2023-04-14T12:56:08.087Z,100885.59
2023-04-14T12:58:37.642Z,100882.38
2023-04-14T13:01:06.845Z,100885.72
2023-04-14T13:03:46.776Z,100880.88
2023-04-14T13:06:16.923Z,100878.44
2023-04-14T13:08:44.741Z,100879.97
2023-04-14T13:11:12.209Z,100880.75
2023-04-14T13:13:39.290Z,100877.91
2023-04-14T13:16:15.423Z,100865.56
2023-04-14T13:18:45.162Z,100868.06
2023-04-14T13:21:12.943Z,100861.84
2023-04-14T13:23:40.609Z,100867.13
2023-04-14T13:26:07.830Z,100848.88
2023-04-14T13:28:35.079Z,100849.66
2023-04-14T13:31:02.540Z,100854.00
2023-04-14T13:33:29.560Z,100849.28
2023-04-14T13:35:57.896Z,100851.28
2023-04-14T13:38:24.837Z,100844.78
2023-04-14T13:40:51.762Z,100854.91
2023-04-14T13:43:18.985Z,100847.06
2023-04-14T13:45:46.911Z,100849.97
2023-04-14T13:48:14.553Z,100851.69
2023-04-14T13:50:42.255Z,100844.63
2023-04-14T13:53:12.185Z,100846.81
2023-04-14T13:55:39.280Z,100839.22
2023-04-14T13:58:06.425Z,100841.41
2023-04-14T14:00:33.836Z,100832.78
2023-04-14T14:03:01.253Z,100839.78
2023-04-14T14:05:29.029Z,100835.44
2023-04-14T14:07:57.444Z,100834.28
2023-04-14T14:10:25.789Z,100839.56
2023-04-14T14:12:53.215Z,100834.78
2023-04-14T14:15:20.341Z,100825.16
2023-04-14T14:17:47.705Z,100823.94
2023-04-14T14:20:14.696Z,100830.88
2023-04-14T14:22:41.631Z,100820.78
2023-04-14T14:25:19.249Z,100817.75
2023-04-14T14:27:51.679Z,100817.41
2023-04-14T14:30:18.744Z,100814.06
2023-04-14T14:32:45.719Z,100827.03
2023-04-14T14:35:12.828Z,100814.81
2023-04-14T14:37:40.832Z,100805.97
2023-04-14T14:40:09.610Z,100821.81
2023-04-14T14:42:36.911Z,100818.16
2023-04-14T14:45:06.917Z,100807.88
2023-04-14T14:47:34.117Z,100813.50
2023-04-14T14:50:04.362Z,100817.03
2023-04-14T14:52:34.608Z,100812.56
2023-04-14T14:55:01.922Z,100817.81
2023-04-14T14:57:30.300Z,100819.09
2023-04-14T14:59:57.706Z,100815.03
2023-04-14T15:02:26.134Z,100822.13
2023-04-14T15:04:54.438Z,100822.16
2023-04-14T15:07:21.410Z,100822.16
2023-04-14T15:09:50.650Z,100822.69
2023-04-14T15:12:18.116Z,100824.88
2023-04-14T15:14:45.152Z,100824.66
2023-04-14T15:17:12.195Z,100825.28
2023-04-14T15:19:42.013Z,100824.25
2023-04-14T15:22:09.916Z,100821.31
2023-04-14T15:24:36.825Z,100818.38
2023-04-14T15:27:04.144Z,100813.44
2023-04-14T15:29:31.754Z,100813.06
2023-04-14T15:31:58.968Z,100811.84
2023-04-14T15:34:27.709Z,100811.06
2023-04-14T15:36:56.385Z,100816.59
2023-04-14T15:39:23.489Z,100811.84
2023-04-14T15:41:51.270Z,100818.44
2023-04-14T15:44:18.598Z,100808.34
2023-04-14T15:46:46.233Z,100807.84
2023-04-14T15:49:13.167Z,100808.41
2023-04-14T15:51:40.240Z,100793.97
2023-04-14T15:54:08.481Z,100803.13
2023-04-14T15:56:35.538Z,100809.31
2023-04-14T15:59:02.461Z,100806.28
2023-04-14T16:01:29.403Z,100811.03
2023-04-14T16:03:56.550Z,100807.06
2023-04-14T16:06:23.559Z,100806.81
2023-04-14T16:08:50.535Z,100812.94
2023-04-14T16:11:19.585Z,100809.59
2023-04-14T16:13:46.751Z,100812.13
2023-04-14T16:16:15.619Z,100812.94
2023-04-14T16:18:42.675Z,100814.75
2023-04-14T16:21:09.743Z,100802.34
2023-04-14T16:23:36.704Z,100810.38
2023-04-14T16:26:03.924Z,100816.38
2023-04-14T16:28:32.314Z,100810.38
2023-04-14T16:30:59.904Z,100805.41
2023-04-14T16:33:27.482Z,100803.78
2023-04-14T16:35:56.785Z,100810.56
2023-04-14T16:38:23.829Z,100800.41
2023-04-14T16:40:56.276Z,100803.22
2023-04-14T16:43:24.504Z,100801.50
2023-04-14T16:45:52.922Z,100804.59
2023-04-14T16:48:20.129Z,100809.25
2023-04-14T16:50:47.319Z,100815.28
2023-04-14T16:53:14.535Z,100804.94
2023-04-14T16:55:42.063Z,100815.97
2023-04-14T16:58:09.785Z,100804.94
2023-04-14T17:00:37.276Z,100809.97
2023-04-14T17:03:06.876Z,100819.84
2023-04-14T17:05:34.007Z,100820.31
2023-04-14T17:08:00.933Z,100829.53
2023-04-14T17:10:29.522Z,100823.59
2023-04-14T17:12:56.767Z,100826.28
2023-04-14T17:15:23.757Z,100825.78
2023-04-14T17:17:50.930Z,100824.84
2023-04-14T17:20:19.792Z,100816.91
2023-04-14T17:22:48.209Z,100822.81
2023-04-14T17:25:19.785Z,100825.97
2023-04-14T17:27:48.036Z,100823.78
2023-04-14T17:30:15.159Z,100824.50
2023-04-14T17:32:42.270Z,100826.28
2023-04-14T17:35:10.357Z,100829.34
2023-04-14T17:37:38.993Z,100834.94
2023-04-14T17:40:10.727Z,100841.63
2023-04-14T17:42:38.643Z,100839.22
2023-04-14T17:45:08.948Z,100836.22
2023-04-14T17:47:38.063Z,100836.59
2023-04-14T17:50:06.782Z,100849.72
2023-04-14T17:52:35.369Z,100849.59
2023-04-14T17:55:04.588Z,100847.38
2023-04-14T17:57:31.661Z,100848.41
2023-04-14T17:59:59.045Z,100853.22
2023-04-14T18:02:26.186Z,100858.44
2023-04-14T18:04:53.105Z,100855.63
2023-04-14T18:07:20.143Z,100861.41
2023-04-14T18:09:47.230Z,100863.13
2023-04-14T18:12:15.510Z,100871.81
2023-04-14T18:14:44.494Z,100867.41
2023-04-14T18:17:11.604Z,100873.63
2023-04-14T18:19:39.192Z,100876.19
2023-04-14T18:22:06.566Z,100870.69
2023-04-14T18:28:02.648Z,100871.91
2023-04-14T18:29:54.229Z,100878.94
2023-04-14T18:32:22.457Z,100879.03
2023-04-14T18:34:49.626Z,100885.25
2023-04-14T18:37:16.854Z,100892.28
2023-04-14T18:39:45.382Z,100895.59
2023-04-14T18:42:12.399Z,100896.47
2023-04-14T18:44:39.275Z,100896.91
2023-04-14T18:47:07.577Z,100897.97
2023-04-14T18:49:34.903Z,100898.16
2023-04-14T18:52:02.220Z,100904.75
2023-04-14T18:54:29.495Z,100906.81
2023-04-14T18:56:56.449Z,100909.72
2023-04-14T18:59:23.863Z,100911.56
2023-04-14T19:01:50.935Z,100918.38
2023-04-14T19:04:19.237Z,100915.97
2023-04-14T19:06:48.121Z,100918.94
2023-04-14T19:09:15.623Z,100924.28
2023-04-14T19:11:42.628Z,100926.19
2023-04-14T19:14:09.514Z,100932.63
2023-04-14T19:16:36.635Z,100932.25
2023-04-14T19:19:04.115Z,100938.44
2023-04-14T19:21:32.577Z,100946.47
2023-04-14T19:23:59.593Z,100940.38
2023-04-14T19:26:27.509Z,100944.28
2023-04-14T19:28:57.434Z,100938.19
2023-04-14T19:31:25.836Z,100938.84
2023-04-14T19:33:52.761Z,100944.22
2023-04-14T19:36:19.877Z,100947.50
2023-04-14T19:38:48.134Z,100947.34
2023-04-14T19:41:15.547Z,100946.91
2023-04-14T19:43:42.476Z,100949.41
2023-04-14T19:46:12.562Z,100948.19
2023-04-14T19:48:40.324Z,100942.91
2023-04-14T19:51:07.354Z,100949.88
2023-04-14T19:53:34.390Z,100954.00
2023-04-14T19:56:05.379Z,100946.66
2023-04-14T19:58:32.843Z,100950.97
2023-04-14T20:01:00.866Z,100942.81
2023-04-14T20:03:28.281Z,100944.25
2023-04-14T20:05:57.217Z,100936.69
2023-04-14T20:08:25.126Z,100934.44
2023-04-14T20:10:54.074Z,100936.13
2023-04-14T20:13:24.296Z,100934.09
2023-04-14T20:15:53.816Z,100936.31
2023-04-14T20:18:22.290Z,100927.16
2023-04-14T20:20:49.529Z,100931.41
2023-04-14T20:23:16.916Z,100930.22
2023-04-14T20:25:44.894Z,100931.66
2023-04-14T20:28:11.873Z,100934.91
2023-04-14T20:30:40.186Z,100932.88
2023-04-14T20:33:07.207Z,100921.03
2023-04-14T20:35:36.371Z,100928.81
2023-04-14T20:38:03.346Z,100933.31
2023-04-14T20:40:31.051Z,100928.84
2023-04-14T20:42:58.300Z,100932.09
2023-04-14T20:45:25.363Z,100935.97
2023-04-14T20:47:53.681Z,100935.38
2023-04-14T20:50:21.040Z,100932.50
2023-04-14T20:52:48.656Z,100934.75
2023-04-14T20:55:18.030Z,100938.63
2023-04-14T20:57:46.084Z,100934.97
2023-04-14T21:00:16.699Z,100930.88
2023-04-14T21:02:44.286Z,100932.28
2023-04-14T21:05:15.292Z,100930.06
2023-04-14T21:07:43.612Z,100928.81
2023-04-14T21:10:12.218Z,100935.56
2023-04-14T21:12:54.207Z,100938.41
2023-04-14T21:15:51.286Z,100935.34
2023-04-14T21:18:13.928Z,100939.44
2023-04-14T21:20:43.372Z,100945.94
2023-04-14T21:23:10.319Z,100949.22
2023-04-14T21:25:37.630Z,100935.69
2023-04-14T21:28:05.237Z,100945.09
2023-04-14T21:30:32.137Z,100947.50
2023-04-14T21:32:59.083Z,100942.59
2023-04-14T21:35:26.171Z,100942.16
2023-04-14T21:37:54.409Z,100948.69
2023-04-14T21:40:21.609Z,100956.44
2023-04-14T21:42:49.070Z,100950.72
2023-04-14T21:45:16.486Z,100952.75
2023-04-14T21:47:43.671Z,100948.66
2023-04-14T21:50:11.227Z,100957.63
2023-04-14T21:52:38.838Z,100952.13
2023-04-14T21:55:09.153Z,100955.16
2023-04-14T21:57:48.620Z,100952.28
2023-04-14T22:00:17.489Z,100959.59
2023-04-14T22:02:44.973Z,100969.38
2023-04-14T22:05:12.869Z,100961.66
2023-04-14T22:07:39.885Z,100954.69
2023-04-14T22:10:09.068Z,100968.16
2023-04-14T22:12:36.119Z,100958.75
2023-04-14T22:15:04.109Z,100953.47
2023-04-14T22:17:31.256Z,100959.75
2023-04-14T22:19:59.123Z,100957.13
2023-04-14T22:22:26.058Z,100964.06
2023-04-14T22:24:54.543Z,100962.84
2023-04-14T22:27:23.088Z,100960.81
2023-04-14T22:29:50.045Z,100956.34
2023-04-14T22:32:17.095Z,100952.88
2023-04-14T22:34:44.024Z,100955.53
2023-04-14T22:37:11.311Z,100956.34
2023-04-14T22:39:38.230Z,100959.59
2023-04-14T22:42:05.198Z,100955.75
2023-04-14T22:44:33.477Z,100961.84
2023-04-14T22:47:01.057Z,100956.34
2023-04-14T22:49:28.007Z,100958.75
2023-04-14T22:51:54.916Z,100961.19
2023-04-14T22:54:22.048Z,100960.56
2023-04-14T22:56:48.990Z,100966.03
2023-04-14T22:59:16.699Z,100956.28
2023-04-14T23:01:44.986Z,100958.31
2023-04-14T23:04:12.068Z,100962.97
2023-04-14T23:06:39.480Z,100960.34
2023-04-14T23:09:06.401Z,100963.97
2023-04-14T23:11:33.596Z,100960.94
2023-04-14T23:14:00.667Z,100959.88
2023-04-14T23:16:27.617Z,100962.91
2023-04-14T23:18:56.068Z,100962.28
2023-04-14T23:21:23.045Z,100965.13
2023-04-14T23:23:50.393Z,100965.50
2023-04-14T23:26:19.294Z,100963.69
2023-04-14T23:28:46.506Z,100970.44
2023-04-14T23:31:13.713Z,100961.28
2023-04-14T23:33:40.926Z,100961.91
2023-04-14T23:36:09.213Z,100951.28
2023-04-14T23:38:36.454Z,100954.94
2023-04-14T23:41:03.578Z,100950.06
2023-04-14T23:43:30.505Z,100957.34
2023-04-14T23:45:57.808Z,100954.50
2023-04-14T23:48:25.777Z,100957.53
2023-04-14T23:51:00.941Z,100951.63
2023-04-14T23:53:41.278Z,100951.38
2023-04-14T23:56:08.332Z,100955.59
2023-04-14T23:58:35.227Z,100946.59
